Time;durP1;ratioP1;P1;durP2;ratioP2;P2;SDS_P1;SDS_P2;PMS_P1;PMS_P2;Temp;Humidity;BMP_temperature;BMP_pressure;BME280_temperature;BME280_humidity;BME280_pressure;Samples;Min_cycle;Max_cycle;Signal;HPM_P1;HPM_P2
2022/10/22 01:36:03;;;;;;;15.10;2.10;;;14.80;99.90;;;;;;5140094;27;20373;-54
2022/10/22 01:38:30;;;;;;;17.67;2.50;;;14.90;99.90;;;;;;5108700;28;20028;-57
2022/10/22 01:40:57;;;;;;;15.73;2.53;;;14.90;99.90;;;;;;5108340;28;20019;-56
2022/10/22 01:43:22;;;;;;;10.77;1.58;;;14.90;99.90;;;;;;5108445;28;20081;-57
2022/10/22 01:45:53;;;;;;;15.38;2.85;;;14.90;99.90;;;;;;5108108;28;20024;-54
2022/10/22 01:48:31;;;;;;;20.92;2.10;;;14.90;99.90;;;;;;5108567;28;20012;-55
2022/10/22 01:51:19;;;;;;;15.73;1.85;;;14.90;99.90;;;;;;5108268;28;20089;-59
2022/10/22 01:53:57;;;;;;;12.57;1.55;;;14.90;99.90;;;;;;5099813;28;20085;-53
2022/10/22 01:56:35;;;;;;;14.13;2.13;;;14.90;99.90;;;;;;5108256;28;20119;-58
2022/10/22 01:59:14;;;;;;;11.40;1.55;;;14.90;99.90;;;;;;5108493;28;20106;-58
2022/10/22 02:01:52;;;;;;;13.32;1.98;;;14.90;99.90;;;;;;5091827;28;20027;-57
2022/10/22 02:04:38;;;;;;;8.93;1.77;;;14.80;99.90;;;;;;5107751;28;20028;-55
2022/10/22 02:07:06;;;;;;;11.70;1.95;;;14.80;99.90;;;;;;5108155;28;20023;-58
2022/10/22 02:09:34;;;;;;;13.82;1.40;;;14.70;99.90;;;;;;5107584;28;20031;-55
2022/10/22 02:12:04;;;;;;;13.93;2.13;;;14.70;99.90;;;;;;5107725;28;20039;-56
2022/10/22 02:14:32;;;;;;;13.07;2.03;;;14.70;99.90;;;;;;5107966;28;20077;-54
2022/10/22 02:16:59;;;;;;;9.75;1.40;;;14.70;99.90;;;;;;5107755;28;20028;-57
2022/10/22 02:19:34;;;;;;;11.10;1.75;;;14.70;99.90;;;;;;5107525;28;20028;-53
2022/10/22 02:22:00;;;;;;;10.07;1.92;;;14.70;99.90;;;;;;5107599;28;20030;-56
2022/10/22 02:24:26;;;;;;;9.38;1.40;;;14.70;99.90;;;;;;5107467;28;20099;-57
2022/10/22 02:26:56;;;;;;;9.35;1.52;;;14.60;99.90;;;;;;5107727;28;20031;-58
2022/10/22 02:29:34;;;;;;;8.93;1.50;;;14.60;99.90;;;;;;5107126;28;20399;-55
2022/10/22 02:32:02;;;;;;;12.30;1.30;;;14.60;99.90;;;;;;5107359;28;20115;-58
2022/10/22 02:34:30;;;;;;;8.13;1.20;;;14.60;99.90;;;;;;5107074;28;20385;-59
2022/10/22 02:36:58;;;;;;;9.73;1.50;;;14.60;99.90;;;;;;5094218;28;20032;-58
2022/10/22 02:39:25;;;;;;;12.60;2.00;;;14.60;99.90;;;;;;5093751;28;20023;-56
2022/10/22 02:41:51;;;;;;;12.38;1.77;;;14.60;99.90;;;;;;5093347;28;20511;-57
2022/10/22 02:44:20;;;;;;;7.50;1.58;;;14.60;99.90;;;;;;5093500;28;20016;-56
2022/10/22 02:46:47;;;;;;;15.23;3.25;;;14.60;99.90;;;;;;5093605;28;20434;-55
2022/10/22 02:49:12;;;;;;;9.60;1.75;;;14.60;99.90;;;;;;5093501;28;20039;-58
2022/10/22 02:51:38;;;;;;;12.70;1.65;;;14.60;99.90;;;;;;5092923;28;20024;-55
2022/10/22 02:54:04;;;;;;;11.98;1.40;;;14.60;99.90;;;;;;5093353;28;20048;-58
2022/10/22 02:56:30;;;;;;;9.10;1.55;;;14.60;99.90;;;;;;5093262;28;20016;-54
2022/10/22 02:58:55;;;;;;;13.25;2.25;;;14.60;99.90;;;;;;5093079;28;20424;-58
2022/10/22 03:01:21;;;;;;;11.02;1.83;;;14.60;99.90;;;;;;5093180;28;20103;-57
2022/10/22 03:03:47;;;;;;;13.93;1.70;;;14.60;99.90;;;;;;5093276;28;20020;-55
2022/10/22 03:06:12;;;;;;;14.20;2.05;;;14.60;99.90;;;;;;5093092;28;20035;-54
2022/10/22 03:08:39;;;;;;;11.15;1.52;;;14.50;99.90;;;;;;5093012;28;20033;-56
2022/10/22 03:11:04;;;;;;;11.10;1.70;;;14.50;99.90;;;;;;5092853;28;20488;-54
2022/10/22 03:13:30;;;;;;;13.05;1.92;;;14.50;99.90;;;;;;5093254;28;20031;-56
2022/10/22 03:15:55;;;;;;;12.45;1.80;;;14.50;99.90;;;;;;5091539;28;20111;-59
2022/10/22 03:18:21;;;;;;;19.05;2.13;;;14.40;99.90;;;;;;5092845;28;20031;-54
2022/10/22 03:20:46;;;;;;;11.63;1.33;;;14.40;99.90;;;;;;5093085;28;20085;-56
2022/10/22 03:23:15;;;;;;;13.05;1.88;;;14.40;99.90;;;;;;5092287;28;21585;-55
2022/10/22 03:25:43;;;;;;;9.48;1.38;;;14.30;99.90;;;;;;5082305;28;20387;-55
2022/10/22 03:28:10;;;;;;;11.25;1.70;;;14.20;99.90;;;;;;5088315;28;20039;-54
2022/10/22 03:30:36;;;;;;;12.75;1.80;;;14.10;99.90;;;;;;5092966;28;20033;-54
2022/10/22 03:33:01;;;;;;;18.55;1.90;;;14.00;99.90;;;;;;5092687;28;20078;-55
2022/10/22 03:35:27;;;;;;;10.95;1.40;;;14.00;99.90;;;;;;5092442;28;20496;-55
2022/10/22 03:37:53;;;;;;;13.85;2.00;;;13.90;99.90;;;;;;5092943;28;20024;-55
2022/10/22 03:40:19;;;;;;;11.48;1.65;;;13.80;99.90;;;;;;5092461;28;20112;-55
2022/10/22 03:42:45;;;;;;;8.65;1.40;;;13.80;99.90;;;;;;5092655;28;20471;-53
2022/10/22 03:45:11;;;;;;;14.52;1.98;;;13.80;99.90;;;;;;5092887;28;20032;-55
2022/10/22 03:47:37;;;;;;;11.85;1.50;;;13.70;99.90;;;;;;5091690;28;20053;-55
2022/10/22 03:50:04;;;;;;;12.68;1.52;;;13.70;99.90;;;;;;5092391;28;20099;-55
2022/10/22 03:52:36;;;;;;;11.27;1.65;;;13.70;99.90;;;;;;5092196;28;20561;-55
2022/10/22 03:55:02;;;;;;;14.07;1.98;;;13.70;99.90;;;;;;5092253;28;20123;-56
2022/10/22 03:57:27;;;;;;;15.32;1.98;;;13.70;99.90;;;;;;5092153;28;20158;-53
2022/10/22 03:59:53;;;;;;;11.05;1.60;;;13.70;99.90;;;;;;5092244;28;20031;-54
2022/10/22 04:02:19;;;;;;;16.15;1.83;;;13.60;99.90;;;;;;5092355;28;20429;-54
2022/10/22 04:04:44;;;;;;;15.10;1.30;;;13.60;99.90;;;;;;5092177;28;20060;-53
2022/10/22 04:07:10;;;;;;;11.57;1.80;;;13.50;99.90;;;;;;5092152;28;20022;-52
2022/10/22 04:09:36;;;;;;;13.02;2.10;;;13.50;99.90;;;;;;5091824;28;20035;-57
2022/10/22 04:12:04;;;;;;;11.05;1.85;;;13.50;99.90;;;;;;5092194;28;20472;-56
2022/10/22 04:14:29;;;;;;;15.30;2.28;;;13.40;99.90;;;;;;5091906;28;20032;-53
2022/10/22 04:16:55;;;;;;;10.93;1.65;;;13.40;99.90;;;;;;5092251;28;20016;-52
2022/10/22 04:19:21;;;;;;;11.38;1.65;;;13.30;99.90;;;;;;5091642;28;20027;-59
2022/10/22 04:21:46;;;;;;;14.82;2.45;;;13.30;99.90;;;;;;5091768;28;20027;-57
2022/10/22 04:24:12;;;;;;;11.07;1.67;;;13.30;99.90;;;;;;5091846;28;20036;-59
2022/10/22 04:26:38;;;;;;;15.32;1.65;;;13.20;99.90;;;;;;5091919;28;20069;-55
2022/10/22 04:29:06;;;;;;;18.40;2.60;;;13.20;99.90;;;;;;5091541;28;20397;-55
2022/10/22 04:31:31;;;;;;;17.90;2.10;;;13.20;99.90;;;;;;5091661;28;20027;-55
2022/10/22 04:33:59;;;;;;;17.73;2.53;;;13.20;99.90;;;;;;5091458;28;20044;-56
2022/10/22 04:36:26;;;;;;;11.13;1.88;;;13.20;99.90;;;;;;5091526;28;20020;-56
2022/10/22 04:38:54;;;;;;;13.23;2.42;;;13.10;99.90;;;;;;5090957;28;20028;-55
2022/10/22 04:41:26;;;;;;;14.03;2.10;;;13.10;99.90;;;;;;5091691;28;20012;-53
2022/10/22 04:43:53;;;;;;;9.63;1.77;;;13.10;99.90;;;;;;5091431;28;20403;-52
2022/10/22 04:46:19;;;;;;;10.93;2.00;;;13.00;99.90;;;;;;5091383;28;20028;-56
2022/10/22 04:48:45;;;;;;;10.48;1.70;;;13.00;99.90;;;;;;5091150;28;20028;-58
2022/10/22 04:51:14;;;;;;;16.75;1.75;;;12.90;99.90;;;;;;5090470;28;20028;-55
2022/10/22 04:53:40;;;;;;;16.65;2.08;;;12.90;99.90;;;;;;5090401;28;20036;-52
2022/10/22 04:56:23;;;;;;;12.70;1.85;;;12.90;99.90;;;;;;5088097;28;20047;-55
2022/10/22 04:58:52;;;;;;;12.10;1.90;;;12.90;99.90;;;;;;5080736;28;20507;-53
2022/10/22 05:01:21;;;;;;;12.93;2.65;;;12.90;99.90;;;;;;5075001;28;20032;-55
2022/10/22 05:03:49;;;;;;;12.93;2.05;;;12.80;99.90;;;;;;5081063;28;20028;-50
2022/10/22 05:06:15;;;;;;;12.70;2.50;;;12.80;99.90;;;;;;5091020;28;20020;-54
2022/10/22 05:08:42;;;;;;;9.20;1.70;;;12.80;99.90;;;;;;5090897;28;20028;-53
2022/10/22 05:11:15;;;;;;;13.95;2.03;;;12.80;99.90;;;;;;5090837;28;20477;-54
2022/10/22 05:13:41;;;;;;;17.92;2.25;;;12.70;99.90;;;;;;5090532;28;20066;-55
2022/10/22 05:16:07;;;;;;;16.52;1.95;;;12.70;99.90;;;;;;5090781;28;20031;-55
2022/10/22 05:18:37;;;;;;;14.70;2.17;;;12.80;99.90;;;;;;5091054;28;20464;-55
2022/10/22 05:21:04;;;;;;;15.50;2.50;;;12.80;99.90;;;;;;5090379;28;20085;-55
2022/10/22 05:23:30;;;;;;;16.52;2.55;;;12.80;99.90;;;;;;5090360;28;20028;-57
2022/10/22 05:25:55;;;;;;;15.02;2.58;;;12.80;99.90;;;;;;5091110;28;20024;-57
2022/10/22 05:28:21;;;;;;;9.85;2.05;;;12.80;99.90;;;;;;5089524;28;20107;-55
2022/10/22 05:30:54;;;;;;;21.42;2.78;;;12.80;99.90;;;;;;5090499;28;20028;-56
2022/10/22 05:33:21;;;;;;;12.45;1.98;;;12.80;99.90;;;;;;5080092;28;20021;-56
2022/10/22 05:35:47;;;;;;;16.60;2.25;;;12.80;99.90;;;;;;5080904;28;20049;-55
2022/10/22 05:38:13;;;;;;;13.82;2.30;;;12.70;99.90;;;;;;5084940;28;20046;-55
2022/10/22 05:40:39;;;;;;;24.70;3.53;;;12.70;99.90;;;;;;5089360;28;20024;-58
2022/10/22 05:43:04;;;;;;;17.10;2.95;;;12.70;99.90;;;;;;5090129;28;20496;-56
2022/10/22 05:45:30;;;;;;;15.60;2.13;;;12.70;99.90;;;;;;5088709;28;20107;-55
2022/10/22 05:47:55;;;;;;;22.48;2.60;;;12.70;99.90;;;;;;5077305;28;20681;-58
2022/10/22 05:50:21;;;;;;;16.15;2.25;;;12.70;99.90;;;;;;5085840;28;20028;-55
2022/10/22 05:52:47;;;;;;;13.50;2.22;;;12.70;99.90;;;;;;5076813;28;20391;-53
2022/10/22 05:55:12;;;;;;;22.52;3.45;;;12.70;99.90;;;;;;5088772;28;20035;-58
2022/10/22 05:57:39;;;;;;;17.70;2.78;;;12.70;99.90;;;;;;5088571;28;20024;-54
2022/10/22 06:00:05;;;;;;;14.65;2.72;;;12.60;99.90;;;;;;5088385;28;20451;-57
2022/10/22 06:02:31;;;;;;;16.73;2.72;;;12.60;99.90;;;;;;5088698;28;20472;-58
2022/10/22 06:04:57;;;;;;;14.00;2.47;;;12.60;99.90;;;;;;5085250;28;20023;-57
2022/10/22 06:07:22;;;;;;;18.42;2.53;;;12.60;99.90;;;;;;5082830;28;20111;-58
2022/10/22 06:09:49;;;;;;;15.85;2.75;;;12.60;99.90;;;;;;5090175;28;20073;-56
2022/10/22 06:12:15;;;;;;;21.88;2.72;;;12.60;99.90;;;;;;5094040;28;20100;-57
2022/10/22 06:14:40;;;;;;;18.17;2.65;;;12.50;99.90;;;;;;5081040;28;20043;-57
2022/10/22 06:17:06;;;;;;;15.20;1.77;;;12.50;99.90;;;;;;5075846;28;20013;-54
2022/10/22 06:19:32;;;;;;;16.38;3.05;;;12.50;99.90;;;;;;5081497;28;20028;-58
2022/10/22 06:21:58;;;;;;;25.35;2.85;;;12.50;99.90;;;;;;5080743;28;20028;-60
2022/10/22 06:24:23;;;;;;;12.25;2.63;;;12.60;99.90;;;;;;5094023;28;20038;-56
2022/10/22 06:26:50;;;;;;;19.33;2.63;;;12.60;99.90;;;;;;5093942;28;20065;-57
2022/10/22 06:29:16;;;;;;;18.10;3.00;;;12.60;99.90;;;;;;5090710;28;20052;-57
2022/10/22 06:31:41;;;;;;;14.13;1.90;;;12.60;99.90;;;;;;5083686;28;20553;-57
2022/10/22 06:34:11;;;;;;;13.73;2.15;;;12.60;99.90;;;;;;5088073;28;20438;-55
2022/10/22 06:36:37;;;;;;;15.48;2.25;;;12.60;99.90;;;;;;5089439;28;20034;-58
2022/10/22 06:39:03;;;;;;;14.15;2.17;;;12.60;99.90;;;;;;5080360;28;20099;-58
2022/10/22 06:41:29;;;;;;;15.68;2.38;;;12.60;99.90;;;;;;5092939;28;20077;-57
2022/10/22 06:43:56;;;;;;;16.55;1.92;;;12.60;99.90;;;;;;5085304;28;20116;-58
2022/10/22 06:46:22;;;;;;;12.93;1.85;;;12.50;99.90;;;;;;5074657;28;20017;-56
2022/10/22 06:48:59;;;;;;;16.40;2.40;;;12.50;99.90;;;;;;5074542;28;20074;-60
2022/10/22 06:51:26;;;;;;;20.95;2.67;;;12.60;99.90;;;;;;5083483;28;20033;-57
2022/10/22 06:53:53;;;;;;;16.38;2.83;;;12.60;99.90;;;;;;5075057;28;20082;-59
2022/10/22 06:56:20;;;;;;;20.50;2.70;;;12.60;99.90;;;;;;5074589;28;20458;-59
2022/10/22 06:58:50;;;;;;;24.42;3.03;;;12.70;99.90;;;;;;5074448;28;20013;-55
2022/10/22 07:01:17;;;;;;;9.68;2.15;;;12.80;99.90;;;;;;5090954;28;20387;-59
2022/10/22 07:03:43;;;;;;;14.55;2.83;;;12.90;99.90;;;;;;5084483;28;20408;-56
2022/10/22 07:06:11;;;;;;;20.08;3.05;;;12.90;99.90;;;;;;5088323;28;20017;-56
2022/10/22 07:08:38;;;;;;;13.18;1.90;;;13.10;99.90;;;;;;5084065;28;20476;-59
2022/10/22 07:11:08;;;;;;;14.23;2.35;;;13.30;99.90;;;;;;5077186;28;20419;-58
2022/10/22 07:13:34;;;;;;;15.35;2.33;;;13.40;99.90;;;;;;5076597;28;20048;-55
2022/10/22 07:15:59;;;;;;;17.33;2.78;;;13.60;99.90;;;;;;5086618;28;20024;-56
2022/10/22 07:18:25;;;;;;;11.73;2.10;;;13.80;99.90;;;;;;5092814;28;20123;-56
2022/10/22 07:20:51;;;;;;;18.55;2.65;;;14.00;99.90;;;;;;5092186;28;20032;-56
2022/10/22 07:23:16;;;;;;;13.30;2.17;;;14.10;99.90;;;;;;5092625;28;20035;-57
2022/10/22 07:25:42;;;;;;;12.00;2.22;;;14.30;99.90;;;;;;5090427;28;20024;-56
2022/10/22 07:28:08;;;;;;;19.75;2.42;;;14.40;99.90;;;;;;5091703;28;20020;-57
2022/10/22 07:30:36;;;;;;;13.80;1.90;;;14.50;99.90;;;;;;5092213;28;20052;-56
2022/10/22 07:33:02;;;;;;;12.50;2.00;;;14.60;99.90;;;;;;5092653;28;20169;-56
2022/10/22 07:35:28;;;;;;;16.52;2.25;;;14.60;99.90;;;;;;5092025;28;20142;-55
2022/10/22 07:37:54;;;;;;;16.30;2.50;;;14.60;99.90;;;;;;5092631;28;20119;-57
2022/10/22 07:40:19;;;;;;;17.83;2.75;;;14.60;99.90;;;;;;5092382;28;20112;-59
2022/10/22 07:42:45;;;;;;;14.43;2.05;;;14.50;99.90;;;;;;5092625;28;20028;-58
2022/10/22 07:45:10;;;;;;;16.33;2.45;;;14.50;99.90;;;;;;5091144;28;20041;-58
2022/10/22 07:47:36;;;;;;;17.92;2.65;;;14.50;99.90;;;;;;5092394;28;20024;-59
2022/10/22 07:50:03;;;;;;;10.38;2.90;;;14.60;99.90;;;;;;5092287;28;20130;-57
2022/10/22 07:52:28;;;;;;;24.50;3.97;;;14.70;99.90;;;;;;5091932;28;20036;-59
2022/10/22 07:54:54;;;;;;;13.70;2.33;;;14.80;99.90;;;;;;5092352;28;20039;-58
2022/10/22 07:57:19;;;;;;;16.88;2.60;;;14.80;99.90;;;;;;5092313;28;20032;-59
2022/10/22 07:59:45;;;;;;;16.13;2.47;;;14.90;99.90;;;;;;5092019;28;20399;-57
2022/10/22 08:02:11;;;;;;;16.08;2.47;;;14.90;99.90;;;;;;5092158;28;20102;-58
2022/10/22 08:04:37;;;;;;;16.83;2.22;;;15.00;99.90;;;;;;5091435;28;20046;-57
2022/10/22 08:07:04;;;;;;;13.32;2.25;;;15.20;99.90;;;;;;5090697;28;20400;-57
2022/10/22 08:09:30;;;;;;;19.40;2.67;;;15.50;99.90;;;;;;5091812;28;20028;-57
2022/10/22 08:11:55;;;;;;;11.93;2.03;;;15.70;99.90;;;;;;5091497;28;20092;-57
2022/10/22 08:14:21;;;;;;;17.15;2.17;;;15.80;99.90;;;;;;5079563;28;20040;-58
2022/10/22 08:16:47;;;;;;;15.40;2.72;;;15.80;99.90;;;;;;5091723;28;20537;-57
2022/10/22 08:19:12;;;;;;;18.83;2.80;;;15.70;99.90;;;;;;5091170;28;20024;-56
2022/10/22 08:21:38;;;;;;;19.08;2.40;;;15.70;99.90;;;;;;5089286;28;20074;-57
2022/10/22 08:24:05;;;;;;;15.90;2.10;;;15.70;99.90;;;;;;5073466;28;20378;-59
2022/10/22 08:26:31;;;;;;;12.90;2.40;;;15.80;99.90;;;;;;5087378;28;20028;-57
2022/10/22 08:28:56;;;;;;;13.80;2.15;;;16.00;99.90;;;;;;5091575;28;20024;-57
2022/10/22 08:31:22;;;;;;;18.40;2.72;;;16.10;99.90;;;;;;5091172;28;20024;-60
2022/10/22 08:33:49;;;;;;;14.30;2.05;;;16.10;99.90;;;;;;5084448;28;20507;-60
2022/10/22 08:36:14;;;;;;;15.07;1.85;;;16.20;99.90;;;;;;5088073;28;20039;-59
2022/10/22 08:38:40;;;;;;;13.30;1.83;;;16.50;99.90;;;;;;5090607;28;20388;-61
2022/10/22 08:41:13;;;;;;;17.92;2.83;;;16.90;99.90;;;;;;5088098;28;20022;-61
2022/10/22 08:44:10;;;;;;;12.95;1.65;;;17.50;99.90;;;;;;5078364;28;20033;-59
2022/10/22 08:46:56;;;;;;;12.50;2.13;;;18.40;99.90;;;;;;5063483;28;20039;-60
2022/10/22 08:49:27;;;;;;;16.15;1.95;;;19.70;99.90;;;;;;5088565;28;20476;-61
2022/10/22 08:51:57;;;;;;;9.30;2.05;;;21.00;99.90;;;;;;5081080;28;20425;-58
2022/10/22 08:54:34;;;;;;;11.25;1.73;;;21.70;99.90;;;;;;5072253;28;20053;-60
2022/10/22 08:57:09;;;;;;;11.25;2.00;;;21.60;99.90;;;;;;5071551;28;20017;-57
2022/10/22 08:59:55;;;;;;;11.05;1.80;;;21.40;99.90;;;;;;5088187;28;20012;-57
2022/10/22 09:02:34;;;;;;;8.82;1.50;;;20.80;99.90;;;;;;5079353;28;20092;-57
2022/10/22 09:05:21;;;;;;;9.07;2.00;;;20.10;99.90;;;;;;5072800;28;20020;-59
2022/10/22 09:07:49;;;;;;;12.30;2.00;;;19.30;99.90;;;;;;5072716;28;20032;-58
2022/10/22 09:10:17;;;;;;;8.48;1.65;;;19.00;99.90;;;;;;5078883;28;20024;-59
2022/10/22 09:12:44;;;;;;;16.17;1.75;;;19.10;99.90;;;;;;5076498;28;20429;-58
2022/10/22 09:15:16;;;;;;;9.88;2.13;;;18.90;99.90;;;;;;5077404;28;20028;-57
2022/10/22 09:18:14;;;;;;;12.07;1.88;;;18.70;99.90;;;;;;5089628;28;20111;-57
2022/10/22 09:20:40;;;;;;;15.70;1.90;;;18.50;99.90;;;;;;5082032;28;20115;-57
2022/10/22 09:23:30;;;;;;;13.75;2.17;;;18.50;99.90;;;;;;5090279;28;20490;-56
2022/10/22 09:25:57;;;;;;;16.73;2.83;;;18.70;99.90;;;;;;5088889;28;20024;-58
2022/10/22 09:28:23;;;;;;;16.92;2.70;;;19.10;99.90;;;;;;5090681;28;20013;-57
2022/10/22 09:30:50;;;;;;;14.32;2.58;;;19.70;99.90;;;;;;5090560;28;20036;-56
2022/10/22 09:33:24;;;;;;;18.90;3.17;;;20.10;99.90;;;;;;5090311;28;20028;-58
2022/10/22 09:36:04;;;;;;;13.77;2.55;;;19.70;99.90;;;;;;5089103;28;20044;-58
2022/10/22 09:38:32;;;;;;;11.00;2.03;;;19.00;99.90;;;;;;5090831;28;20031;-58
2022/10/22 09:41:02;;;;;;;18.13;2.65;;;18.50;99.90;;;;;;5090535;28;20028;-59
2022/10/22 09:43:28;;;;;;;16.70;2.03;;;18.00;99.90;;;;;;5091012;28;20035;-61
2022/10/22 09:46:00;;;;;;;18.10;2.35;;;17.60;99.90;;;;;;5091610;28;20031;-60
2022/10/22 09:48:33;;;;;;;14.02;2.42;;;17.30;99.90;;;;;;5094803;28;20028;-59
2022/10/22 09:51:10;;;;;;;12.85;1.90;;;17.10;99.90;;;;;;5094030;28;20035;-59
2022/10/22 09:53:41;;;;;;;15.20;2.10;;;17.10;99.90;;;;;;5094649;28;20103;-58
2022/10/22 09:56:22;;;;;;;13.82;2.15;;;17.30;99.90;;;;;;5094658;28;20039;-58
2022/10/22 09:58:50;;;;;;;17.00;2.20;;;17.40;99.90;;;;;;5094719;28;20056;-58
2022/10/22 10:01:19;;;;;;;18.90;2.35;;;17.50;99.90;;;;;;5094151;28;20024;-59
2022/10/22 10:03:46;;;;;;;16.00;2.43;;;18.50;99.90;;;;;;5093468;28;20074;-58
2022/10/22 10:06:17;;;;;;;7.93;1.70;;;20.30;99.90;;;;;;5092486;28;20077;-59
2022/10/22 10:08:45;;;;;;;12.18;2.45;;;22.10;99.90;;;;;;5092682;28;20106;-58
2022/10/22 10:11:35;;;;;;;12.95;1.63;;;23.30;99.90;;;;;;5092054;28;20080;-60
2022/10/22 10:14:19;;;;;;;9.57;2.17;;;25.20;99.90;;;;;;5092103;28;20028;-60
2022/10/22 10:16:53;;;;;;;10.68;1.60;;;25.90;99.90;;;;;;5087762;28;20095;-59
2022/10/22 10:19:22;;;;;;;10.98;1.88;;;26.10;99.70;;;;;;5086971;28;20048;-57
2022/10/22 10:22:05;;;;;;;10.03;2.03;;;25.70;97.40;;;;;;5093466;28;20416;-57
2022/10/22 10:24:49;;;;;;;9.77;1.55;;;24.50;99.50;;;;;;5093837;28;20741;-58
2022/10/22 10:27:21;;;;;;;12.75;2.22;;;23.30;99.90;;;;;;5094148;28;20111;-59
2022/10/22 10:30:20;;;;;;;9.43;2.15;;;22.00;99.90;;;;;;5093632;28;20549;-55
2022/10/22 10:33:13;;;;;;;12.82;2.00;;;20.80;99.90;;;;;;5092648;28;20036;-57
2022/10/22 10:36:16;;;;;;;9.27;2.08;;;19.90;99.90;;;;;;5093556;28;20044;-57
2022/10/22 10:38:58;;;;;;;10.70;1.38;;;20.70;99.90;;;;;;5093740;28;20099;-56
2022/10/22 10:42:18;;;;;;;10.88;1.30;;;21.50;99.90;;;;;;5092552;28;20036;-58
2022/10/22 10:44:56;;;;;;;6.78;1.58;;;21.80;99.90;;;;;;5019326;28;20037;-58
2022/10/22 10:47:48;;;;;;;7.78;1.50;;;20.80;99.90;;;;;;5085497;28;20384;-58
2022/10/22 10:50:41;;;;;;;11.20;2.20;;;20.10;99.90;;;;;;5093465;28;20020;-57
2022/10/22 10:53:34;;;;;;;9.73;1.67;;;19.80;99.90;;;;;;5086375;28;20500;-57
2022/10/22 10:56:28;;;;;;;9.23;1.50;;;19.90;99.90;;;;;;5082845;28;20078;-58
2022/10/22 10:59:24;;;;;;;9.70;1.88;;;20.10;99.90;;;;;;5090176;28;20043;-59
2022/10/22 11:02:08;;;;;;;11.35;1.92;;;20.40;99.90;;;;;;5092738;28;20024;-57
2022/10/22 11:04:50;;;;;;;14.70;1.98;;;20.20;99.90;;;;;;5084715;28;20392;-58
2022/10/22 11:07:22;;;;;;;10.15;1.38;;;20.30;99.90;;;;;;5091002;28;20031;-59
2022/10/22 11:09:59;;;;;;;9.95;1.58;;;20.70;99.90;;;;;;5092792;28;20020;-57
2022/10/22 11:12:35;;;;;;;9.90;1.42;;;21.60;99.90;;;;;;5090632;28;20129;-56
2022/10/22 11:15:28;;;;;;;9.20;1.55;;;22.60;99.90;;;;;;5092357;28;20050;-58
2022/10/22 11:17:58;;;;;;;12.27;1.80;;;22.30;99.90;;;;;;5079742;28;20102;-59
2022/10/22 11:20:54;;;;;;;9.23;2.03;;;21.90;99.90;;;;;;5092456;28;20534;-59
2022/10/22 11:23:31;;;;;;;6.88;1.83;;;22.20;99.90;;;;;;5091693;28;20058;-58
2022/10/22 11:26:00;;;;;;;10.10;1.83;;;22.50;99.90;;;;;;5092772;28;20133;-57
2022/10/22 11:28:32;;;;;;;13.80;2.05;;;22.30;99.90;;;;;;5091314;28;20118;-58
2022/10/22 11:31:05;;;;;;;10.88;1.67;;;21.70;99.90;;;;;;5090255;28;20032;-57
2022/10/22 11:34:03;;;;;;;11.95;1.75;;;21.50;99.90;;;;;;5082682;28;20027;-58
2022/10/22 11:36:30;;;;;;;9.02;1.92;;;20.90;99.90;;;;;;5089444;28;20075;-59
2022/10/22 11:38:56;;;;;;;10.35;2.00;;;20.90;99.90;;;;;;5090773;28;20115;-60
2022/10/22 11:41:29;;;;;;;9.55;1.67;;;21.70;99.90;;;;;;5084533;28;20103;-60
2022/10/22 11:44:08;;;;;;;14.23;1.92;;;22.70;99.90;;;;;;5077692;28;20023;-58
2022/10/22 11:47:06;;;;;;;10.90;1.88;;;22.50;99.90;;;;;;5085790;28;20095;-58
2022/10/22 11:49:45;;;;;;;12.70;1.77;;;22.20;99.90;;;;;;5090884;28;21032;-57
2022/10/22 11:52:52;;;;;;;11.02;1.42;;;21.70;99.90;;;;;;5084344;28;20030;-59
2022/10/22 11:55:48;;;;;;;8.85;1.83;;;20.90;99.90;;;;;;5008193;28;20524;-57
2022/10/22 11:58:32;;;;;;;9.43;1.85;;;21.50;99.90;;;;;;5088729;28;20507;-58
2022/10/22 12:01:00;;;;;;;10.10;1.85;;;22.00;99.90;;;;;;5082692;28;20081;-58
2022/10/22 12:03:31;;;;;;;9.87;1.67;;;22.70;99.90;;;;;;5079741;28;20028;-57
2022/10/22 12:06:14;;;;;;;12.18;1.70;;;22.30;99.90;;;;;;5086780;28;20065;-59
2022/10/22 12:08:48;;;;;;;12.93;2.13;;;21.50;99.90;;;;;;5088371;28;20026;-59
2022/10/22 12:11:46;;;;;;;12.80;2.13;;;21.10;99.90;;;;;;5090866;28;20028;-57
2022/10/22 12:14:33;;;;;;;12.43;2.00;;;20.50;99.90;;;;;;5080689;28;20028;-58
2022/10/22 12:17:04;;;;;;;9.18;1.70;;;20.00;99.90;;;;;;5090176;28;20027;-57
2022/10/22 12:19:43;;;;;;;12.75;2.10;;;19.80;99.90;;;;;;5090305;28;20025;-57
2022/10/22 12:22:09;;;;;;;12.98;1.70;;;19.70;99.90;;;;;;5090287;28;20024;-52
2022/10/22 12:24:43;;;;;;;14.23;2.20;;;19.90;99.90;;;;;;5090937;28;20039;-56
2022/10/22 12:27:21;;;;;;;15.13;1.98;;;20.40;99.90;;;;;;5090699;28;20019;-55
2022/10/22 12:29:48;;;;;;;8.18;1.80;;;20.60;99.90;;;;;;5089948;28;20400;-59
2022/10/22 12:32:15;;;;;;;10.88;2.05;;;20.50;99.90;;;;;;5090281;28;20035;-58
2022/10/22 12:34:45;;;;;;;14.30;1.98;;;20.20;99.90;;;;;;5090219;28;20150;-60
2022/10/22 12:37:13;;;;;;;13.30;1.90;;;19.70;99.90;;;;;;5090623;28;20032;-59
2022/10/22 12:39:39;;;;;;;11.70;1.77;;;19.60;99.90;;;;;;5090864;28;20147;-59
2022/10/22 12:42:06;;;;;;;11.13;2.50;;;19.50;99.90;;;;;;5090373;28;20098;-57
2022/10/22 12:44:32;;;;;;;10.52;1.77;;;19.50;99.90;;;;;;5091157;28;20113;-58
2022/10/22 12:46:58;;;;;;;11.30;1.95;;;19.50;99.90;;;;;;5090256;28;20048;-58
2022/10/22 12:49:40;;;;;;;13.75;1.75;;;19.50;99.90;;;;;;5089873;28;20547;-59
2022/10/22 12:52:13;;;;;;;8.80;1.85;;;19.30;99.90;;;;;;5087939;28;20157;-58
2022/10/22 12:54:39;;;;;;;14.60;2.33;;;19.10;99.90;;;;;;5086659;28;20133;-58
2022/10/22 12:57:09;;;;;;;6.53;1.33;;;19.00;99.90;;;;;;5088543;28;20023;-58
2022/10/22 12:59:37;;;;;;;12.27;2.10;;;18.90;99.90;;;;;;5087827;28;20050;-60
2022/10/22 13:02:17;;;;;;;12.70;1.92;;;18.90;99.90;;;;;;5089232;28;20020;-57
2022/10/22 13:05:11;;;;;;;14.77;2.15;;;18.80;99.90;;;;;;5087765;28;20150;-58
2022/10/22 13:07:43;;;;;;;15.25;2.92;;;18.70;99.90;;;;;;5089243;28;20419;-58
2022/10/22 13:10:30;;;;;;;9.57;1.60;;;18.60;99.90;;;;;;5089513;28;20047;-57
2022/10/22 13:12:57;;;;;;;17.38;2.15;;;18.50;99.90;;;;;;5081847;28;20119;-57
2022/10/22 13:15:35;;;;;;;11.32;1.88;;;18.30;99.90;;;;;;5087526;28;20043;-56
2022/10/22 13:18:20;;;;;;;16.73;2.40;;;18.30;99.90;;;;;;5082491;28;20028;-55
2022/10/22 13:20:56;;;;;;;7.90;1.55;;;18.30;99.90;;;;;;5084339;28;20533;-57
2022/10/22 13:23:24;;;;;;;13.00;1.85;;;18.50;99.90;;;;;;5089480;28;20434;-57
2022/10/22 13:26:00;;;;;;;14.88;1.92;;;18.80;99.90;;;;;;5089034;28;20024;-57
2022/10/22 13:28:26;;;;;;;14.02;2.17;;;19.10;99.90;;;;;;5090006;28;20017;-56
2022/10/22 13:31:14;;;;;;;11.82;2.08;;;19.10;99.90;;;;;;5089702;28;20093;-57
2022/10/22 13:33:45;;;;;;;14.27;1.98;;;19.00;99.90;;;;;;5089310;28;20048;-57
2022/10/22 13:36:15;;;;;;;14.73;2.40;;;18.80;99.90;;;;;;5090949;28;20332;-57
2022/10/22 13:38:42;;;;;;;14.93;2.28;;;18.60;99.90;;;;;;5089940;28;20028;-57
2022/10/22 13:41:23;;;;;;;15.15;2.20;;;18.50;99.90;;;;;;5090641;28;20016;-56
2022/10/22 13:43:49;;;;;;;11.95;1.52;;;18.50;99.90;;;;;;5090664;28;20119;-56
2022/10/22 13:46:16;;;;;;;14.73;2.17;;;18.60;99.90;;;;;;5090977;28;20016;-56
2022/10/22 13:48:42;;;;;;;11.75;1.88;;;18.90;99.90;;;;;;5088794;28;20032;-57
2022/10/22 13:51:23;;;;;;;9.30;2.00;;;19.10;99.90;;;;;;5084803;28;20522;-57
2022/10/22 13:53:51;;;;;;;12.93;2.00;;;19.30;99.90;;;;;;5075789;28;20021;-56
2022/10/22 13:56:19;;;;;;;12.68;2.00;;;19.20;99.90;;;;;;5080675;28;20039;-56
2022/10/22 13:58:46;;;;;;;12.73;2.10;;;19.00;99.90;;;;;;5070844;28;20282;-56
2022/10/22 14:01:24;;;;;;;9.25;1.45;;;18.80;99.90;;;;;;5084846;28;20488;-56
2022/10/22 14:03:53;;;;;;;13.10;2.60;;;18.60;99.90;;;;;;5082356;28;20020;-59
2022/10/22 14:06:20;;;;;;;13.07;1.90;;;18.20;99.90;;;;;;5071964;28;20020;-59
2022/10/22 14:08:49;;;;;;;12.40;1.90;;;18.10;99.90;;;;;;5081224;28;20168;-58
2022/10/22 14:11:15;;;;;;;13.77;1.90;;;18.00;99.90;;;;;;5089818;28;20373;-58
2022/10/22 14:13:41;;;;;;;15.38;2.10;;;17.90;99.90;;;;;;5089305;28;20020;-58
2022/10/22 14:16:13;;;;;;;14.13;2.20;;;17.90;99.90;;;;;;5090499;28;20050;-56
2022/10/22 14:18:40;;;;;;;11.10;2.15;;;17.80;99.90;;;;;;5090548;28;20020;-57
2022/10/22 14:21:08;;;;;;;12.85;1.83;;;17.80;99.90;;;;;;5090068;28;20027;-58
2022/10/22 14:23:35;;;;;;;14.70;2.50;;;17.80;99.90;;;;;;5090583;28;20070;-58
2022/10/22 14:26:06;;;;;;;13.30;2.10;;;17.70;99.90;;;;;;5090211;28;20099;-58
2022/10/22 14:28:31;;;;;;;10.27;1.63;;;17.60;99.90;;;;;;5090351;28;20035;-54
2022/10/22 14:30:57;;;;;;;16.70;2.38;;;17.60;99.90;;;;;;5090141;28;20032;-51
2022/10/22 14:33:28;;;;;;;11.10;1.73;;;17.90;99.90;;;;;;5093661;28;20051;-53